createdAt,value
2023-02-03T07:54:36.066Z,19.40
2023-02-03T08:04:37.492Z,19.90
2023-02-03T08:14:38.940Z,20.40
2023-02-03T08:24:40.333Z,20.50
2023-02-03T08:34:41.722Z,20.70
2023-02-03T08:44:43.109Z,20.80
2023-02-03T08:54:45.466Z,20.80
2023-02-03T09:04:46.894Z,20.60
2023-02-03T09:14:48.303Z,20.50
2023-02-03T09:24:49.882Z,20.30
2023-02-03T09:34:51.261Z,20.30
2023-02-03T09:44:52.657Z,20.10
2023-02-03T09:54:54.102Z,20.00
2023-02-03T10:04:55.496Z,20.30
2023-02-03T10:14:56.873Z,20.40
2023-02-03T10:24:58.347Z,20.50
2023-02-03T10:34:59.747Z,20.50
2023-02-03T10:45:01.183Z,20.40
2023-02-03T10:55:02.575Z,20.40
2023-02-03T11:05:03.977Z,20.50
2023-02-03T11:15:05.387Z,20.80
2023-02-03T11:25:06.788Z,20.70
2023-02-03T11:35:08.189Z,20.60
2023-02-03T11:45:09.578Z,20.40
2023-02-03T11:55:10.982Z,20.30
2023-02-03T12:05:12.415Z,20.40
2023-02-03T12:15:13.824Z,20.40
2023-02-03T12:25:15.254Z,20.50
2023-02-03T12:35:16.660Z,20.60
2023-02-03T12:45:18.073Z,20.60
2023-02-03T12:55:19.493Z,20.60
2023-02-03T13:05:20.921Z,20.60
2023-02-03T13:15:22.321Z,20.60
2023-02-03T13:25:23.746Z,20.50
2023-02-03T13:35:33.975Z,20.50
2023-02-03T13:45:36.006Z,20.50
2023-02-03T13:55:37.423Z,20.40
2023-02-03T14:05:38.822Z,20.30
2023-02-03T14:15:40.221Z,20.30
2023-02-03T14:25:41.612Z,20.30
2023-02-03T14:35:44.160Z,20.40
2023-02-03T14:45:45.565Z,20.30
2023-02-03T14:55:46.961Z,20.30
2023-02-03T15:05:48.368Z,20.30
2023-02-03T15:15:49.806Z,20.20
2023-02-03T15:25:51.201Z,20.20
2023-02-03T15:35:52.584Z,20.50
2023-02-03T15:45:53.990Z,20.70
2023-02-03T15:55:55.386Z,20.70
2023-02-03T16:05:56.793Z,20.80
2023-02-03T16:15:58.225Z,20.70
2023-02-03T16:25:59.669Z,20.70
2023-02-03T16:36:01.084Z,21.20
2023-02-03T16:46:02.583Z,21.20
2023-02-03T16:56:04.048Z,21.00
2023-02-03T17:06:05.439Z,20.80
2023-02-03T17:16:06.870Z,20.50
2023-02-03T17:26:08.467Z,20.50
2023-02-03T17:36:09.878Z,20.50
2023-02-03T17:56:30.460Z,20.30
2023-02-03T18:06:31.827Z,20.30
2023-02-03T18:16:33.262Z,20.10
2023-02-03T18:26:34.737Z,20.10
2023-02-03T18:36:36.131Z,20.00
2023-02-03T18:46:37.570Z,19.90
2023-02-03T18:56:38.999Z,19.90
